sensor_id;sensor_type;location;lat;lon;timestamp;P1;durP1;ratioP1;P2;durP2;ratioP2
20042;SDS011;10182;52.896;6.496;2023-04-19T00:02:46;9.93;;;8.90;;
20042;SDS011;10182;52.896;6.496;2023-04-19T00:07:50;10.37;;;9.17;;
20042;SDS011;10182;52.896;6.496;2023-04-19T00:12:52;12.27;;;9.90;;
20042;SDS011;10182;52.896;6.496;2023-04-19T00:17:53;14.03;;;9.67;;
20042;SDS011;10182;52.896;6.496;2023-04-19T00:22:56;11.27;;;9.77;;
20042;SDS011;10182;52.896;6.496;2023-04-19T00:27:58;11.37;;;8.93;;
20042;SDS011;10182;52.896;6.496;2023-04-19T00:33:00;15.73;;;9.93;;
20042;SDS011;10182;52.896;6.496;2023-04-19T00:38:03;12.43;;;9.53;;
20042;SDS011;10182;52.896;6.496;2023-04-19T00:43:05;11.63;;;8.60;;
20042;SDS011;10182;52.896;6.496;2023-04-19T00:48:07;12.77;;;8.33;;
20042;SDS011;10182;52.896;6.496;2023-04-19T00:53:10;11.30;;;8.57;;
20042;SDS011;10182;52.896;6.496;2023-04-19T00:58:12;12.43;;;9.33;;
20042;SDS011;10182;52.896;6.496;2023-04-19T01:03:14;10.93;;;8.50;;
20042;SDS011;10182;52.896;6.496;2023-04-19T01:08:17;11.33;;;8.33;;
20042;SDS011;10182;52.896;6.496;2023-04-19T01:13:19;10.00;;;8.93;;
20042;SDS011;10182;52.896;6.496;2023-04-19T01:18:21;9.50;;;8.20;;
20042;SDS011;10182;52.896;6.496;2023-04-19T01:23:26;12.20;;;9.53;;
20042;SDS011;10182;52.896;6.496;2023-04-19T01:28:27;12.03;;;9.20;;
20042;SDS011;10182;52.896;6.496;2023-04-19T01:33:29;13.73;;;9.67;;
20042;SDS011;10182;52.896;6.496;2023-04-19T01:38:32;11.00;;;9.57;;
20042;SDS011;10182;52.896;6.496;2023-04-19T01:43:35;11.30;;;9.53;;
20042;SDS011;10182;52.896;6.496;2023-04-19T01:48:36;13.67;;;9.37;;
20042;SDS011;10182;52.896;6.496;2023-04-19T01:53:39;11.97;;;8.93;;
20042;SDS011;10182;52.896;6.496;2023-04-19T01:58:41;11.67;;;9.03;;
20042;SDS011;10182;52.896;6.496;2023-04-19T02:03:43;10.47;;;8.53;;
20042;SDS011;10182;52.896;6.496;2023-04-19T02:08:46;12.07;;;9.27;;
20042;SDS011;10182;52.896;6.496;2023-04-19T02:13:48;11.43;;;8.80;;
20042;SDS011;10182;52.896;6.496;2023-04-19T02:18:50;11.20;;;8.90;;
20042;SDS011;10182;52.896;6.496;2023-04-19T02:23:53;13.57;;;9.63;;
20042;SDS011;10182;52.896;6.496;2023-04-19T02:28:55;12.40;;;10.50;;
20042;SDS011;10182;52.896;6.496;2023-04-19T02:33:57;15.30;;;11.10;;
20042;SDS011;10182;52.896;6.496;2023-04-19T02:39:00;14.10;;;11.10;;
20042;SDS011;10182;52.896;6.496;2023-04-19T02:44:02;14.87;;;11.67;;
20042;SDS011;10182;52.896;6.496;2023-04-19T02:49:03;13.93;;;11.53;;
20042;SDS011;10182;52.896;6.496;2023-04-19T02:54:06;13.87;;;12.27;;
20042;SDS011;10182;52.896;6.496;2023-04-19T02:59:08;14.47;;;11.77;;
20042;SDS011;10182;52.896;6.496;2023-04-19T03:04:10;15.40;;;11.93;;
20042;SDS011;10182;52.896;6.496;2023-04-19T03:09:13;15.40;;;12.37;;
20042;SDS011;10182;52.896;6.496;2023-04-19T03:14:15;17.03;;;12.43;;
20042;SDS011;10182;52.896;6.496;2023-04-19T03:19:16;17.93;;;12.23;;
20042;SDS011;10182;52.896;6.496;2023-04-19T03:24:22;16.97;;;12.23;;
20042;SDS011;10182;52.896;6.496;2023-04-19T03:29:28;15.53;;;10.90;;
20042;SDS011;10182;52.896;6.496;2023-04-19T03:34:29;18.73;;;11.50;;
20042;SDS011;10182;52.896;6.496;2023-04-19T03:39:33;16.07;;;10.73;;
20042;SDS011;10182;52.896;6.496;2023-04-19T03:44:34;15.53;;;10.80;;
20042;SDS011;10182;52.896;6.496;2023-04-19T03:49:36;11.87;;;9.77;;
20042;SDS011;10182;52.896;6.496;2023-04-19T03:54:39;12.10;;;9.33;;
20042;SDS011;10182;52.896;6.496;2023-04-19T03:59:41;12.97;;;8.90;;
20042;SDS011;10182;52.896;6.496;2023-04-19T04:04:43;12.70;;;8.53;;
20042;SDS011;10182;52.896;6.496;2023-04-19T04:09:46;11.40;;;8.43;;
20042;SDS011;10182;52.896;6.496;2023-04-19T04:14:47;10.67;;;8.73;;
20042;SDS011;10182;52.896;6.496;2023-04-19T04:19:49;12.30;;;8.43;;
20042;SDS011;10182;52.896;6.496;2023-04-19T04:24:52;10.87;;;8.60;;
20042;SDS011;10182;52.896;6.496;2023-04-19T04:29:57;10.67;;;9.00;;
20042;SDS011;10182;52.896;6.496;2023-04-19T04:34:58;10.23;;;9.13;;
20042;SDS011;10182;52.896;6.496;2023-04-19T04:40:02;15.03;;;8.70;;
20042;SDS011;10182;52.896;6.496;2023-04-19T04:45:05;14.43;;;8.93;;
20042;SDS011;10182;52.896;6.496;2023-04-19T04:50:10;10.10;;;8.33;;
20042;SDS011;10182;52.896;6.496;2023-04-19T04:55:13;10.53;;;8.70;;
20042;SDS011;10182;52.896;6.496;2023-04-19T05:00:15;11.57;;;8.50;;
20042;SDS011;10182;52.896;6.496;2023-04-19T05:05:17;12.17;;;8.40;;
20042;SDS011;10182;52.896;6.496;2023-04-19T05:10:20;8.73;;;7.50;;
20042;SDS011;10182;52.896;6.496;2023-04-19T05:15:22;10.83;;;8.17;;
20042;SDS011;10182;52.896;6.496;2023-04-19T05:20:24;9.30;;;6.93;;
20042;SDS011;10182;52.896;6.496;2023-04-19T05:25:27;9.63;;;7.37;;
20042;SDS011;10182;52.896;6.496;2023-04-19T05:30:30;8.73;;;6.53;;
20042;SDS011;10182;52.896;6.496;2023-04-19T05:35:31;9.57;;;7.10;;
20042;SDS011;10182;52.896;6.496;2023-04-19T05:40:34;10.67;;;6.80;;
20042;SDS011;10182;52.896;6.496;2023-04-19T05:45:36;8.07;;;6.50;;
20042;SDS011;10182;52.896;6.496;2023-04-19T05:50:38;11.07;;;6.83;;
20042;SDS011;10182;52.896;6.496;2023-04-19T05:55:41;9.93;;;6.40;;
20042;SDS011;10182;52.896;6.496;2023-04-19T06:00:44;8.83;;;6.27;;
20042;SDS011;10182;52.896;6.496;2023-04-19T06:05:47;10.27;;;5.33;;
20042;SDS011;10182;52.896;6.496;2023-04-19T06:10:51;7.10;;;4.37;;
20042;SDS011;10182;52.896;6.496;2023-04-19T06:15:55;6.27;;;4.57;;
20042;SDS011;10182;52.896;6.496;2023-04-19T06:20:57;7.33;;;4.57;;
20042;SDS011;10182;52.896;6.496;2023-04-19T06:26:00;5.67;;;4.17;;
20042;SDS011;10182;52.896;6.496;2023-04-19T06:31:02;7.37;;;4.77;;
20042;SDS011;10182;52.896;6.496;2023-04-19T06:36:04;4.47;;;3.97;;
20042;SDS011;10182;52.896;6.496;2023-04-19T06:41:07;5.43;;;4.30;;
20042;SDS011;10182;52.896;6.496;2023-04-19T06:46:09;5.70;;;3.87;;
20042;SDS011;10182;52.896;6.496;2023-04-19T06:51:12;5.90;;;4.07;;
20042;SDS011;10182;52.896;6.496;2023-04-19T06:56:16;4.67;;;4.03;;
20042;SDS011;10182;52.896;6.496;2023-04-19T07:01:17;4.37;;;3.77;;
20042;SDS011;10182;52.896;6.496;2023-04-19T07:06:19;5.67;;;4.10;;
20042;SDS011;10182;52.896;6.496;2023-04-19T07:11:22;12.40;;;3.53;;
20042;SDS011;10182;52.896;6.496;2023-04-19T07:16:23;5.07;;;3.23;;
20042;SDS011;10182;52.896;6.496;2023-04-19T07:21:25;4.73;;;3.40;;
20042;SDS011;10182;52.896;6.496;2023-04-19T07:26:33;4.73;;;3.00;;
20042;SDS011;10182;52.896;6.496;2023-04-19T07:31:35;3.47;;;2.30;;
20042;SDS011;10182;52.896;6.496;2023-04-19T07:36:36;2.97;;;2.50;;
20042;SDS011;10182;52.896;6.496;2023-04-19T07:41:39;4.30;;;2.60;;
20042;SDS011;10182;52.896;6.496;2023-04-19T07:46:41;4.43;;;2.67;;
20042;SDS011;10182;52.896;6.496;2023-04-19T07:51:44;6.80;;;3.50;;
20042;SDS011;10182;52.896;6.496;2023-04-19T07:56:47;3.93;;;2.60;;
20042;SDS011;10182;52.896;6.496;2023-04-19T08:01:49;3.13;;;2.83;;
20042;SDS011;10182;52.896;6.496;2023-04-19T08:06:50;4.43;;;2.87;;
20042;SDS011;10182;52.896;6.496;2023-04-19T08:11:54;5.00;;;3.13;;
20042;SDS011;10182;52.896;6.496;2023-04-19T08:16:56;3.17;;;2.30;;
20042;SDS011;10182;52.896;6.496;2023-04-19T08:21:57;3.20;;;2.90;;
20042;SDS011;10182;52.896;6.496;2023-04-19T08:27:01;4.60;;;2.80;;
20042;SDS011;10182;52.896;6.496;2023-04-19T08:32:02;5.83;;;3.13;;
20042;SDS011;10182;52.896;6.496;2023-04-19T08:37:04;4.40;;;2.60;;
20042;SDS011;10182;52.896;6.496;2023-04-19T08:42:08;3.00;;;2.70;;
20042;SDS011;10182;52.896;6.496;2023-04-19T08:47:10;4.50;;;2.90;;
20042;SDS011;10182;52.896;6.496;2023-04-19T08:52:15;4.83;;;3.00;;
20042;SDS011;10182;52.896;6.496;2023-04-19T08:57:20;3.57;;;2.73;;
20042;SDS011;10182;52.896;6.496;2023-04-19T09:02:21;4.23;;;2.50;;
20042;SDS011;10182;52.896;6.496;2023-04-19T09:07:24;4.63;;;2.50;;
20042;SDS011;10182;52.896;6.496;2023-04-19T09:12:28;4.47;;;2.63;;
20042;SDS011;10182;52.896;6.496;2023-04-19T09:17:30;3.13;;;2.67;;
20042;SDS011;10182;52.896;6.496;2023-04-19T09:22:32;2.80;;;2.27;;
20042;SDS011;10182;52.896;6.496;2023-04-19T09:27:35;4.20;;;2.13;;
20042;SDS011;10182;52.896;6.496;2023-04-19T09:32:44;2.63;;;2.20;;
20042;SDS011;10182;52.896;6.496;2023-04-19T09:37:59;4.40;;;3.10;;
20042;SDS011;10182;52.896;6.496;2023-04-19T09:43:02;2.57;;;2.27;;
20042;SDS011;10182;52.896;6.496;2023-04-19T09:48:05;3.40;;;2.47;;
20042;SDS011;10182;52.896;6.496;2023-04-19T09:53:08;5.63;;;2.60;;
20042;SDS011;10182;52.896;6.496;2023-04-19T09:58:12;2.57;;;2.17;;
20042;SDS011;10182;52.896;6.496;2023-04-19T10:03:14;9.40;;;2.50;;
20042;SDS011;10182;52.896;6.496;2023-04-19T10:08:16;3.67;;;2.00;;
20042;SDS011;10182;52.896;6.496;2023-04-19T10:13:21;3.20;;;2.33;;
20042;SDS011;10182;52.896;6.496;2023-04-19T10:18:24;2.60;;;2.00;;
20042;SDS011;10182;52.896;6.496;2023-04-19T10:23:27;3.40;;;2.40;;
20042;SDS011;10182;52.896;6.496;2023-04-19T10:28:31;4.67;;;1.93;;
20042;SDS011;10182;52.896;6.496;2023-04-19T10:33:36;1.83;;;1.60;;
20042;SDS011;10182;52.896;6.496;2023-04-19T10:38:38;3.17;;;1.77;;
20042;SDS011;10182;52.896;6.496;2023-04-19T10:43:44;5.93;;;2.00;;
20042;SDS011;10182;52.896;6.496;2023-04-19T10:48:50;5.00;;;1.77;;
20042;SDS011;10182;52.896;6.496;2023-04-19T10:53:57;3.10;;;1.90;;
20042;SDS011;10182;52.896;6.496;2023-04-19T10:59:16;4.23;;;1.80;;
20042;SDS011;10182;52.896;6.496;2023-04-19T11:04:24;3.00;;;1.37;;
20042;SDS011;10182;52.896;6.496;2023-04-19T11:10:03;4.37;;;1.37;;
20042;SDS011;10182;52.896;6.496;2023-04-19T11:15:06;3.13;;;1.47;;
20042;SDS011;10182;52.896;6.496;2023-04-19T11:20:11;8.90;;;2.60;;
20042;SDS011;10182;52.896;6.496;2023-04-19T11:25:14;4.03;;;1.43;;
20042;SDS011;10182;52.896;6.496;2023-04-19T11:30:18;3.43;;;1.53;;
20042;SDS011;10182;52.896;6.496;2023-04-19T11:35:23;3.90;;;1.30;;
20042;SDS011;10182;52.896;6.496;2023-04-19T11:40:26;4.43;;;1.90;;
20042;SDS011;10182;52.896;6.496;2023-04-19T11:45:28;2.70;;;1.90;;
20042;SDS011;10182;52.896;6.496;2023-04-19T11:50:39;3.53;;;1.93;;
20042;SDS011;10182;52.896;6.496;2023-04-19T11:55:42;1.73;;;1.60;;
20042;SDS011;10182;52.896;6.496;2023-04-19T12:00:45;4.60;;;2.03;;
20042;SDS011;10182;52.896;6.496;2023-04-19T12:05:52;2.93;;;2.03;;
20042;SDS011;10182;52.896;6.496;2023-04-19T12:10:55;5.90;;;2.57;;
20042;SDS011;10182;52.896;6.496;2023-04-19T12:15:57;3.40;;;2.40;;
20042;SDS011;10182;52.896;6.496;2023-04-19T12:21:01;3.20;;;2.70;;
20042;SDS011;10182;52.896;6.496;2023-04-19T12:26:03;5.83;;;3.50;;
20042;SDS011;10182;52.896;6.496;2023-04-19T12:31:05;3.83;;;2.90;;
20042;SDS011;10182;52.896;6.496;2023-04-19T12:36:08;6.23;;;3.07;;
20042;SDS011;10182;52.896;6.496;2023-04-19T12:41:10;6.20;;;3.50;;
20042;SDS011;10182;52.896;6.496;2023-04-19T12:46:12;3.60;;;2.80;;
20042;SDS011;10182;52.896;6.496;2023-04-19T12:51:15;3.50;;;3.20;;
20042;SDS011;10182;52.896;6.496;2023-04-19T12:56:17;4.20;;;3.27;;
20042;SDS011;10182;52.896;6.496;2023-04-19T13:01:18;5.00;;;3.00;;
20042;SDS011;10182;52.896;6.496;2023-04-19T13:06:22;4.13;;;2.90;;
20042;SDS011;10182;52.896;6.496;2023-04-19T13:11:24;3.20;;;2.90;;
20042;SDS011;10182;52.896;6.496;2023-04-19T13:16:25;4.47;;;3.23;;
20042;SDS011;10182;52.896;6.496;2023-04-19T13:21:29;4.10;;;2.60;;
20042;SDS011;10182;52.896;6.496;2023-04-19T13:26:31;3.77;;;2.97;;
20042;SDS011;10182;52.896;6.496;2023-04-19T13:31:33;4.27;;;2.70;;
20042;SDS011;10182;52.896;6.496;2023-04-19T13:36:36;5.30;;;3.10;;
20042;SDS011;10182;52.896;6.496;2023-04-19T13:41:40;4.30;;;2.93;;
20042;SDS011;10182;52.896;6.496;2023-04-19T13:46:41;4.13;;;2.93;;
20042;SDS011;10182;52.896;6.496;2023-04-19T13:51:44;7.17;;;3.03;;
20042;SDS011;10182;52.896;6.496;2023-04-19T13:56:46;3.13;;;2.50;;
20042;SDS011;10182;52.896;6.496;2023-04-19T14:01:48;5.57;;;2.60;;
20042;SDS011;10182;52.896;6.496;2023-04-19T14:06:51;9.17;;;2.83;;
20042;SDS011;10182;52.896;6.496;2023-04-19T14:11:53;8.77;;;3.10;;
20042;SDS011;10182;52.896;6.496;2023-04-19T14:16:54;2.90;;;2.47;;
20042;SDS011;10182;52.896;6.496;2023-04-19T14:21:58;3.27;;;2.80;;
20042;SDS011;10182;52.896;6.496;2023-04-19T14:27:00;4.87;;;2.70;;
20042;SDS011;10182;52.896;6.496;2023-04-19T14:32:02;5.27;;;3.10;;
20042;SDS011;10182;52.896;6.496;2023-04-19T14:37:05;6.37;;;2.83;;
20042;SDS011;10182;52.896;6.496;2023-04-19T14:42:07;4.13;;;3.00;;
20042;SDS011;10182;52.896;6.496;2023-04-19T14:47:08;4.27;;;2.83;;
20042;SDS011;10182;52.896;6.496;2023-04-19T14:52:11;3.40;;;3.10;;
20042;SDS011;10182;52.896;6.496;2023-04-19T14:57:13;5.87;;;2.87;;
20042;SDS011;10182;52.896;6.496;2023-04-19T15:02:15;15.03;;;9.63;;
20042;SDS011;10182;52.896;6.496;2023-04-19T15:07:18;3.50;;;2.80;;
20042;SDS011;10182;52.896;6.496;2023-04-19T15:12:20;3.30;;;2.80;;
20042;SDS011;10182;52.896;6.496;2023-04-19T15:17:22;4.33;;;2.90;;
20042;SDS011;10182;52.896;6.496;2023-04-19T15:22:25;5.03;;;2.73;;
20042;SDS011;10182;52.896;6.496;2023-04-19T15:27:27;3.47;;;2.90;;
20042;SDS011;10182;52.896;6.496;2023-04-19T15:32:29;4.73;;;2.70;;
20042;SDS011;10182;52.896;6.496;2023-04-19T15:37:34;3.13;;;2.73;;
20042;SDS011;10182;52.896;6.496;2023-04-19T15:42:37;3.83;;;2.37;;
20042;SDS011;10182;52.896;6.496;2023-04-19T15:47:38;7.60;;;2.73;;
20042;SDS011;10182;52.896;6.496;2023-04-19T15:52:41;4.43;;;2.97;;
20042;SDS011;10182;52.896;6.496;2023-04-19T15:57:43;3.70;;;2.57;;
20042;SDS011;10182;52.896;6.496;2023-04-19T16:02:48;5.07;;;2.70;;
20042;SDS011;10182;52.896;6.496;2023-04-19T16:08:00;2.93;;;2.50;;
20042;SDS011;10182;52.896;6.496;2023-04-19T16:13:03;4.37;;;2.50;;
20042;SDS011;10182;52.896;6.496;2023-04-19T16:18:05;9.13;;;2.60;;
20042;SDS011;10182;52.896;6.496;2023-04-19T16:23:08;4.33;;;2.60;;
20042;SDS011;10182;52.896;6.496;2023-04-19T16:28:10;2.97;;;2.40;;
20042;SDS011;10182;52.896;6.496;2023-04-19T16:33:12;2.93;;;2.10;;
20042;SDS011;10182;52.896;6.496;2023-04-19T16:38:15;3.43;;;2.50;;
20042;SDS011;10182;52.896;6.496;2023-04-19T16:43:17;3.90;;;2.63;;
20042;SDS011;10182;52.896;6.496;2023-04-19T16:48:19;3.13;;;2.13;;
20042;SDS011;10182;52.896;6.496;2023-04-19T16:53:22;5.40;;;2.53;;
20042;SDS011;10182;52.896;6.496;2023-04-19T16:58:24;4.63;;;2.77;;
20042;SDS011;10182;52.896;6.496;2023-04-19T17:03:27;3.27;;;2.27;;
20042;SDS011;10182;52.896;6.496;2023-04-19T17:08:30;3.17;;;2.23;;
20042;SDS011;10182;52.896;6.496;2023-04-19T17:13:32;5.87;;;2.43;;
20042;SDS011;10182;52.896;6.496;2023-04-19T17:18:34;2.63;;;2.43;;
20042;SDS011;10182;52.896;6.496;2023-04-19T17:23:37;6.07;;;2.30;;
20042;SDS011;10182;52.896;6.496;2023-04-19T17:28:39;4.87;;;2.60;;
20042;SDS011;10182;52.896;6.496;2023-04-19T17:33:40;4.30;;;2.70;;
20042;SDS011;10182;52.896;6.496;2023-04-19T17:38:43;8.50;;;2.80;;
20042;SDS011;10182;52.896;6.496;2023-04-19T17:43:45;8.50;;;3.10;;
20042;SDS011;10182;52.896;6.496;2023-04-19T17:48:47;5.50;;;3.13;;
20042;SDS011;10182;52.896;6.496;2023-04-19T17:53:50;5.90;;;3.10;;
20042;SDS011;10182;52.896;6.496;2023-04-19T17:58:52;3.33;;;3.03;;
20042;SDS011;10182;52.896;6.496;2023-04-19T18:03:54;4.57;;;3.33;;
20042;SDS011;10182;52.896;6.496;2023-04-19T18:08:57;4.67;;;3.07;;
20042;SDS011;10182;52.896;6.496;2023-04-19T18:13:59;7.37;;;3.50;;
20042;SDS011;10182;52.896;6.496;2023-04-19T18:19:01;4.03;;;2.83;;
20042;SDS011;10182;52.896;6.496;2023-04-19T18:24:04;4.00;;;2.67;;
20042;SDS011;10182;52.896;6.496;2023-04-19T18:29:07;3.50;;;2.60;;
20042;SDS011;10182;52.896;6.496;2023-04-19T18:34:09;4.13;;;2.30;;
20042;SDS011;10182;52.896;6.496;2023-04-19T18:39:12;5.97;;;2.57;;
20042;SDS011;10182;52.896;6.496;2023-04-19T18:44:14;5.13;;;2.20;;
20042;SDS011;10182;52.896;6.496;2023-04-19T18:49:15;5.27;;;3.97;;
20042;SDS011;10182;52.896;6.496;2023-04-19T18:54:19;2.27;;;2.07;;
20042;SDS011;10182;52.896;6.496;2023-04-19T18:59:20;4.30;;;2.10;;
20042;SDS011;10182;52.896;6.496;2023-04-19T19:04:22;6.97;;;2.27;;
20042;SDS011;10182;52.896;6.496;2023-04-19T19:09:26;5.43;;;2.83;;
20042;SDS011;10182;52.896;6.496;2023-04-19T19:14:27;9.13;;;2.87;;
20042;SDS011;10182;52.896;6.496;2023-04-19T19:19:34;3.27;;;2.03;;
20042;SDS011;10182;52.896;6.496;2023-04-19T19:24:40;4.60;;;2.33;;
20042;SDS011;10182;52.896;6.496;2023-04-19T19:29:42;5.53;;;2.40;;
20042;SDS011;10182;52.896;6.496;2023-04-19T19:34:46;5.40;;;2.37;;
20042;SDS011;10182;52.896;6.496;2023-04-19T19:39:50;5.53;;;2.07;;
20042;SDS011;10182;52.896;6.496;2023-04-19T19:44:52;5.47;;;2.10;;
20042;SDS011;10182;52.896;6.496;2023-04-19T19:49:54;9.50;;;2.87;;
20042;SDS011;10182;52.896;6.496;2023-04-19T19:54:57;2.30;;;2.10;;
20042;SDS011;10182;52.896;6.496;2023-04-19T20:00:00;3.80;;;2.47;;
20042;SDS011;10182;52.896;6.496;2023-04-19T20:05:02;4.20;;;2.50;;
20042;SDS011;10182;52.896;6.496;2023-04-19T20:10:06;2.97;;;2.10;;
20042;SDS011;10182;52.896;6.496;2023-04-19T20:15:10;3.97;;;2.10;;
20042;SDS011;10182;52.896;6.496;2023-04-19T20:20:13;6.07;;;2.40;;
20042;SDS011;10182;52.896;6.496;2023-04-19T20:25:16;3.77;;;1.83;;
20042;SDS011;10182;52.896;6.496;2023-04-19T20:30:18;5.00;;;2.43;;
20042;SDS011;10182;52.896;6.496;2023-04-19T20:35:20;6.77;;;2.53;;
20042;SDS011;10182;52.896;6.496;2023-04-19T20:40:23;3.73;;;2.73;;
20042;SDS011;10182;52.896;6.496;2023-04-19T20:45:25;3.40;;;2.40;;
20042;SDS011;10182;52.896;6.496;2023-04-19T20:50:27;7.50;;;2.77;;
20042;SDS011;10182;52.896;6.496;2023-04-19T20:55:30;4.87;;;3.40;;
20042;SDS011;10182;52.896;6.496;2023-04-19T21:00:32;4.23;;;3.07;;
20042;SDS011;10182;52.896;6.496;2023-04-19T21:05:34;5.17;;;2.27;;
20042;SDS011;10182;52.896;6.496;2023-04-19T21:10:37;4.73;;;2.70;;
20042;SDS011;10182;52.896;6.496;2023-04-19T21:15:38;5.07;;;2.67;;
20042;SDS011;10182;52.896;6.496;2023-04-19T21:20:40;4.00;;;2.83;;
20042;SDS011;10182;52.896;6.496;2023-04-19T21:25:44;4.17;;;2.80;;
20042;SDS011;10182;52.896;6.496;2023-04-19T21:30:46;6.20;;;3.03;;
20042;SDS011;10182;52.896;6.496;2023-04-19T21:35:48;4.80;;;2.60;;
20042;SDS011;10182;52.896;6.496;2023-04-19T21:40:51;7.73;;;3.20;;
20042;SDS011;10182;52.896;6.496;2023-04-19T21:45:53;4.37;;;3.47;;
20042;SDS011;10182;52.896;6.496;2023-04-19T21:50:54;6.47;;;2.90;;
20042;SDS011;10182;52.896;6.496;2023-04-19T21:55:57;6.53;;;2.90;;
20042;SDS011;10182;52.896;6.496;2023-04-19T22:01:00;4.50;;;2.80;;
20042;SDS011;10182;52.896;6.496;2023-04-19T22:06:02;6.03;;;2.97;;
20042;SDS011;10182;52.896;6.496;2023-04-19T22:11:07;7.57;;;3.43;;
20042;SDS011;10182;52.896;6.496;2023-04-19T22:16:08;6.37;;;3.70;;
20042;SDS011;10182;52.896;6.496;2023-04-19T22:21:10;6.80;;;3.40;;
20042;SDS011;10182;52.896;6.496;2023-04-19T22:26:13;7.43;;;3.20;;
20042;SDS011;10182;52.896;6.496;2023-04-19T22:31:15;6.30;;;3.20;;
20042;SDS011;10182;52.896;6.496;2023-04-19T22:36:16;6.43;;;3.43;;
20042;SDS011;10182;52.896;6.496;2023-04-19T22:41:19;5.47;;;3.80;;
20042;SDS011;10182;52.896;6.496;2023-04-19T22:46:21;4.43;;;3.33;;
20042;SDS011;10182;52.896;6.496;2023-04-19T22:51:23;4.70;;;3.87;;
20042;SDS011;10182;52.896;6.496;2023-04-19T22:56:26;5.00;;;3.93;;
20042;SDS011;10182;52.896;6.496;2023-04-19T23:01:28;4.83;;;4.37;;
20042;SDS011;10182;52.896;6.496;2023-04-19T23:06:30;4.63;;;3.93;;
20042;SDS011;10182;52.896;6.496;2023-04-19T23:11:34;5.20;;;4.23;;
20042;SDS011;10182;52.896;6.496;2023-04-19T23:16:35;6.70;;;4.53;;
20042;SDS011;10182;52.896;6.496;2023-04-19T23:21:38;5.53;;;4.13;;
20042;SDS011;10182;52.896;6.496;2023-04-19T23:26:41;6.13;;;4.43;;
20042;SDS011;10182;52.896;6.496;2023-04-19T23:31:43;5.47;;;4.80;;
20042;SDS011;10182;52.896;6.496;2023-04-19T23:36:44;6.57;;;4.80;;
20042;SDS011;10182;52.896;6.496;2023-04-19T23:41:47;5.67;;;4.67;;
20042;SDS011;10182;52.896;6.496;2023-04-19T23:46:49;5.73;;;5.07;;
20042;SDS011;10182;52.896;6.496;2023-04-19T23:51:51;5.80;;;4.33;;
20042;SDS011;10182;52.896;6.496;2023-04-19T23:56:54;7.37;;;4.73;;
